Time;durP1;ratioP1;P1;durP2;ratioP2;P2;SDS_P1;SDS_P2;PMS_P1;PMS_P2;Temp;Humidity;BMP_temperature;BMP_pressure;BME280_temperature;BME280_humidity;BME280_pressure;Samples;Min_cycle;Max_cycle;Signal;HPM_P1;HPM_P2
2021/11/07 00:01:44;;;;;;;37.33;25.65;;;;;;;12.66;79.85;95281.20;824543;71;33312;-80
2021/11/07 00:16:34;;;;;;;41.45;26.05;;;;;;;12.58;79.65;95285.22;833028;71;33531;-79
2021/11/07 00:31:33;;;;;;;39.15;25.80;;;;;;;12.57;79.82;95287.08;818957;71;29880;-80
2021/11/07 00:46:29;;;;;;;35.73;23.83;;;;;;;12.60;80.27;95279.15;833965;71;33316;-77
2021/11/07 01:01:18;;;;;;;41.80;26.60;;;;;;;12.60;80.31;95260.18;820504;71;29729;-79
2021/11/07 01:16:36;;;;;;;33.65;26.30;;;;;;;12.63;80.62;95243.03;828925;71;28435;-77
2021/11/07 01:46:34;;;;;;;27.90;22.73;;;;;;;12.71;80.48;95224.00;815150;71;33155;-77
2021/11/07 02:01:26;;;;;;;30.80;22.02;;;;;;;12.75;80.28;95234.22;833425;71;32850;-77
2021/11/07 02:16:16;;;;;;;31.02;21.42;;;;;;;12.75;80.22;95223.69;835408;71;29806;-79
2021/11/07 02:31:17;;;;;;;33.45;22.70;;;;;;;12.77;80.12;95213.65;827167;71;31212;-78
2021/11/07 02:46:29;;;;;;;29.02;21.55;;;;;;;12.75;80.20;95210.52;823199;71;32740;-78
2021/11/07 03:16:46;;;;;;;31.73;22.65;;;;;;;12.66;81.00;95212.20;833427;71;33359;-77
2021/11/07 03:46:11;;;;;;;27.37;20.32;;;;;;;12.73;80.78;95217.91;827707;71;30515;-79
2021/11/07 04:01:13;;;;;;;27.62;20.40;;;;;;;12.71;80.99;95220.05;827241;71;30033;-76
2021/11/07 04:16:21;;;;;;;28.30;21.15;;;;;;;12.70;80.73;95221.09;823523;71;33608;-77
2021/11/07 04:31:33;;;;;;;28.42;21.57;;;;;;;12.67;80.68;95208.48;826892;71;33236;-77
2021/11/07 04:46:24;;;;;;;31.60;23.25;;;;;;;12.46;81.30;95209.27;822366;71;32769;-78
2021/11/07 05:16:28;;;;;;;33.70;23.30;;;;;;;12.42;81.79;95203.78;834013;71;32792;-78
2021/11/07 05:31:26;;;;;;;30.55;21.65;;;;;;;12.36;82.26;95209.39;834173;71;32791;-77
2021/11/07 05:46:16;;;;;;;30.97;21.23;;;;;;;12.46;82.36;95215.86;821413;71;30593;-78
2021/11/07 06:01:20;;;;;;;30.68;22.73;;;;;;;13.33;82.71;95223.96;819913;71;32948;-78
2021/11/07 06:16:15;;;;;;;30.37;22.90;;;;;;;13.26;80.44;95232.75;820811;71;32658;-77
2021/11/07 06:31:12;;;;;;;32.85;25.23;;;;;;;13.56;79.68;95243.38;833998;71;30930;-80
2021/11/07 06:46:11;;;;;;;32.95;24.63;;;;;;;14.20;78.42;95246.28;821768;71;31095;-78
2021/11/07 07:01:15;;;;;;;34.88;26.48;;;;;;;15.16;76.57;95243.36;832846;71;33017;-79
2021/11/07 09:16:12;;;;;;;40.73;30.52;;;;;;;17.12;71.51;95129.21;818635;71;30436;-75
2021/11/07 09:31:15;;;;;;;37.63;26.57;;;;;;;17.92;68.66;95110.93;828060;71;29713;-76
2021/11/07 10:01:08;;;;;;;28.12;23.40;;;;;;;21.01;61.26;95088.84;824798;71;29898;-77
2021/11/07 10:16:12;;;;;;;26.27;22.80;;;;;;;21.90;57.94;95048.20;827424;71;31133;-75
2021/11/07 10:31:25;;;;;;;57.17;51.07;;;;;;;23.30;61.00;95023.59;828301;71;29720;-80
2021/11/07 10:46:56;;;;;;;43.03;34.73;;;;;;;22.79;55.86;94989.75;814885;71;33008;-75
2021/11/07 11:01:21;;;;;;;29.50;23.43;;;;;;;23.38;54.82;94964.42;828613;71;30737;-82
2021/11/07 11:16:41;;;;;;;26.97;23.07;;;;;;;23.63;51.99;94932.45;827185;71;32829;-76
2021/11/07 11:31:18;;;;;;;25.80;21.87;;;;;;;23.60;51.31;94928.57;827903;71;29818;-77
2021/11/07 11:46:18;;;;;;;27.20;23.60;;;;;;;23.15;51.32;94904.16;817894;71;29843;-77
2021/11/07 12:01:17;;;;;;;32.03;24.00;;;;;;;20.97;57.05;94868.41;827080;71;30364;-78
2021/11/07 12:16:19;;;;;;;23.90;21.30;;;;;;;21.10;57.17;94861.08;820892;71;30603;-77
2021/11/07 12:31:09;;;;;;;27.25;21.70;;;;;;;20.28;59.47;94831.24;821173;71;29753;-78
2021/11/07 12:46:35;;;;;;;24.43;19.40;;;;;;;20.20;60.50;94816.18;830821;71;29751;-77
2021/11/07 13:01:32;;;;;;;29.25;22.52;;;;;;;20.33;60.42;94806.98;823205;71;32650;-77
2021/11/07 13:16:21;;;;;;;23.50;19.60;;;;;;;20.28;60.55;94803.26;825126;71;30366;-77
2021/11/07 13:31:18;;;;;;;25.40;19.82;;;;;;;20.09;61.07;94801.79;818010;71;32060;-78
2021/11/07 13:46:10;;;;;;;230.30;131.65;;;;;;;19.77;64.72;94795.06;834077;70;30300;-78
2021/11/07 14:01:17;;;;;;;22.50;19.25;;;;;;;19.90;62.50;94791.22;817715;71;31106;-76
2021/11/07 14:16:11;;;;;;;19.17;16.82;;;;;;;19.55;62.96;94789.09;833741;71;29693;-76
2021/11/07 14:31:27;;;;;;;24.30;19.07;;;;;;;19.27;65.98;94785.05;827809;71;31392;-76
2021/11/07 14:46:41;;;;;;;20.57;17.70;;;;;;;18.50;66.01;94771.09;827399;71;32717;-76
2021/11/07 15:17:03;;;;;;;34.25;26.48;;;;;;;17.50;70.22;94760.50;835732;71;30291;-80
2021/11/07 15:31:17;;;;;;;38.60;28.12;;;;;;;17.15;71.48;94755.98;823185;71;32060;-80
2021/11/07 15:46:15;;;;;;;40.25;28.00;;;;;;;16.70;72.72;94752.02;822118;71;32057;-83
2021/11/07 16:01:37;;;;;;;44.77;31.50;;;;;;;16.39;73.42;94750.44;824701;71;32839;-85
2021/11/07 16:16:42;;;;;;;39.25;30.97;;;;;;;16.76;74.77;94758.69;835427;71;32804;-79
2021/11/07 16:31:20;;;;;;;36.00;28.70;;;;;;;16.53;73.49;94754.20;828815;71;32636;-79
2021/11/07 16:46:46;;;;;;;45.43;30.15;;;;;;;16.37;73.78;94747.33;822513;71;32770;-81
2021/11/07 18:01:21;;;;;;;54.65;38.02;;;;;;;15.84;75.66;94708.89;828526;71;32717;-84
2021/11/07 18:16:23;;;;;;;63.15;42.17;;;;;;;15.63;75.72;94691.54;832265;71;33197;-84
2021/11/07 18:31:13;;;;;;;58.52;41.42;;;;;;;15.60;75.70;94698.23;829071;71;29723;-87
2021/11/07 18:46:25;;;;;;;59.00;43.50;;;;;;;15.45;76.10;94703.23;834331;71;32779;-80
2021/11/07 19:01:15;;;;;;;55.15;38.73;;;;;;;15.35;76.67;94690.58;824230;71;32676;-83
2021/11/07 19:16:09;;;;;;;49.70;35.95;;;;;;;15.33;77.07;94695.41;828383;71;29682;-82
2021/11/07 19:31:18;;;;;;;50.85;36.35;;;;;;;15.31;77.32;94683.56;835702;71;32574;-86
2021/11/07 19:46:17;;;;;;;52.73;36.30;;;;;;;15.18;77.49;94677.36;834075;71;32774;-86
2021/11/07 20:01:41;;;;;;;55.63;38.28;;;;;;;15.05;77.90;94675.13;815438;71;33404;-83
2021/11/07 20:16:16;;;;;;;64.32;41.80;;;;;;;14.98;78.61;94680.87;822687;71;32715;-84
2021/11/07 20:31:14;;;;;;;51.68;36.00;;;;;;;14.89;78.57;94684.59;817555;72;29734;-87
2021/11/07 20:47:03;;;;;;;54.23;39.90;;;;;;;14.73;78.54;94679.75;836221;69;32685;-82
2021/11/07 21:16:23;;;;;;;52.75;35.30;;;;;;;14.21;79.40;94648.72;820486;71;29680;-85
2021/11/07 21:31:16;;;;;;;51.23;35.68;;;;;;;14.15;79.59;94652.59;822114;71;32111;-84
2021/11/07 21:46:10;;;;;;;54.70;35.08;;;;;;;14.04;79.89;94655.25;827827;71;29807;-82
2021/11/07 22:01:16;;;;;;;44.75;31.95;;;;;;;13.92;79.81;94660.33;824461;71;32924;-82
2021/11/07 22:16:23;;;;;;;44.75;29.75;;;;;;;13.77;80.05;94638.55;822415;71;32799;-81
2021/11/07 22:31:10;;;;;;;41.40;27.55;;;;;;;13.69;79.96;94622.69;821145;71;30383;-79
2021/11/07 22:46:15;;;;;;;38.60;27.10;;;;;;;13.53;80.49;94615.72;830355;71;30233;-82
2021/11/07 23:01:19;;;;;;;39.53;28.30;;;;;;;13.36;80.81;94606.64;819859;71;30388;-84
2021/11/07 23:16:08;;;;;;;37.90;27.58;;;;;;;13.14;81.08;94592.91;820206;71;30279;-84
2021/11/07 23:31:14;;;;;;;37.95;26.48;;;;;;;13.03;81.39;94581.83;823964;71;32838;-84
2021/11/07 23:46:21;;;;;;;36.77;25.45;;;;;;;12.90;81.29;94572.15;820963;71;32756;-84
